Aeroporto :







RITROVATECI SU...

 
LOGIN :

Iscrizione | Disclaimer

   EN    FR    IT 

 









Sommario :    VFR   VFR Marginale   IFR   IFR Intensivo   IFR Molto Intensivo
Visibilità : 
Base nubi : 
>= 8 km
>= 3000ft
5 / 8 km
1000 / 3000 ft
1500m / 5 km
500 / 1000 ft
800 / 1500m
200 / 500 ft
< 800m
< 200 ft
Simboli :   Temporali  Nebbia  Neve Forte  Precipitazioni Forti  Vento > 20 kt






- Altitudine del aeroporto : 271 ft


KBAF - Barnes Municipal

ULTIMO METAR :
  • 071353Z 24009G16KT 10SM FEW049 12/M01 A2992 RMK AO2 SLP135 T01221006

METARs OBSOLETI :
  • 071253Z 23005KT 10SM CLR 11/M01 A2994 RMK AO2 SLP139 T01061006
  • 071153Z 00000KT 10SM CLR 06/M03 A2995 RMK AO2 SLP144 T00611033 10083 20017 53008

TAF KBAF
Valido dal 07 a 12 ore il 08 a 12 ore UTC


071124Z 0712/0812 28003KT P6SM FEW120
FM071800 29010G25KT P6SM FEW100
FM080200 VRB03KT P6SM BKN090
FM080700 03003KT P6SM VCSH OVC035
FM081100 03005KT 6SM BR VCSH OVC010



MetMap, La meteo Aeronautica in un colpo d'occhio ! - Copyright ORBIFLY Dicembre 2007 - Disclaimer

ORBIFLY MET'MAP TEAM :

Programmazione e sviluppo : Alexandra Zaïnal
Concezione : Baudouin d'Aumeries
Aiuto per la programmazione : Marc-Olivier Méhu
Supporto tecnico e logistico : Manuel Goepfert
Aiuto per la traduzione : Arnaldo La Scala

Contatto : metmap@orbifly.com




FONTI E CREDITI :

   NOAA